sensor_id;sensor_type;location;lat;lon;timestamp;pressure;altitude;pressure_sealevel;temperature;humidity
84815;BME280;75050;53.190;5.562;2023-12-20T00:01:48;101411.56;;;9.28;86.26
84815;BME280;75050;53.190;5.562;2023-12-20T00:04:14;101409.78;;;9.29;86.17
84815;BME280;75050;53.190;5.562;2023-12-20T00:06:39;101411.41;;;9.31;85.94
84815;BME280;75050;53.190;5.562;2023-12-20T00:09:05;101409.03;;;9.27;86.22
84815;BME280;75050;53.190;5.562;2023-12-20T00:11:30;101414.16;;;9.28;86.26
84815;BME280;75050;53.190;5.562;2023-12-20T00:13:55;101413.28;;;9.28;85.69
84815;BME280;75050;53.190;5.562;2023-12-20T00:16:21;101408.09;;;9.28;85.82
84815;BME280;75050;53.190;5.562;2023-12-20T00:18:46;101401.22;;;9.27;85.93
84815;BME280;75050;53.190;5.562;2023-12-20T00:21:11;101406.47;;;9.25;85.70
84815;BME280;75050;53.190;5.562;2023-12-20T00:23:37;101396.28;;;9.21;85.61
84815;BME280;75050;53.190;5.562;2023-12-20T00:26:02;101404.59;;;9.29;85.57
84815;BME280;75050;53.190;5.562;2023-12-20T00:28:28;101415.81;;;9.29;85.67
84815;BME280;75050;53.190;5.562;2023-12-20T00:30:53;101347.44;;;8.89;85.35
84815;BME280;75050;53.190;5.562;2023-12-20T00:33:18;101390.50;;;9.15;85.64
84815;BME280;75050;53.190;5.562;2023-12-20T00:35:44;101375.75;;;9.15;85.61
84815;BME280;75050;53.190;5.562;2023-12-20T00:38:09;101389.50;;;9.17;85.61
84815;BME280;75050;53.190;5.562;2023-12-20T00:40:36;101397.84;;;9.25;85.81
84815;BME280;75050;53.190;5.562;2023-12-20T00:43:01;101385.75;;;9.24;86.02
84815;BME280;75050;53.190;5.562;2023-12-20T00:45:26;101394.31;;;9.26;85.84
84815;BME280;75050;53.190;5.562;2023-12-20T00:47:52;101390.22;;;9.20;85.55
84815;BME280;75050;53.190;5.562;2023-12-20T00:50:17;101397.00;;;9.24;85.61
84815;BME280;75050;53.190;5.562;2023-12-20T00:52:43;101371.59;;;9.11;85.76
84815;BME280;75050;53.190;5.562;2023-12-20T00:55:08;101382.75;;;9.13;85.83
84815;BME280;75050;53.190;5.562;2023-12-20T00:57:34;101390.16;;;9.22;85.76
84815;BME280;75050;53.190;5.562;2023-12-20T00:59:59;101370.34;;;9.19;85.74
84815;BME280;75050;53.190;5.562;2023-12-20T01:02:24;101373.59;;;9.24;85.64
84815;BME280;75050;53.190;5.562;2023-12-20T01:04:50;101372.81;;;9.22;85.91
84815;BME280;75050;53.190;5.562;2023-12-20T01:07:15;101364.09;;;9.23;86.13
84815;BME280;75050;53.190;5.562;2023-12-20T01:09:41;101364.09;;;9.23;85.95
84815;BME280;75050;53.190;5.562;2023-12-20T01:12:06;101375.34;;;9.24;85.79
84815;BME280;75050;53.190;5.562;2023-12-20T01:14:31;101365.81;;;9.24;85.75
84815;BME280;75050;53.190;5.562;2023-12-20T01:16:57;101340.75;;;9.04;85.91
84815;BME280;75050;53.190;5.562;2023-12-20T01:19:22;101389.28;;;9.23;85.70
84815;BME280;75050;53.190;5.562;2023-12-20T01:21:49;101374.63;;;9.20;85.69
84815;BME280;75050;53.190;5.562;2023-12-20T01:24:14;101356.88;;;9.12;85.74
84815;BME280;75050;53.190;5.562;2023-12-20T01:26:39;101370.31;;;9.21;85.89
84815;BME280;75050;53.190;5.562;2023-12-20T01:29:05;101376.34;;;9.21;85.92
84815;BME280;75050;53.190;5.562;2023-12-20T01:31:30;101370.34;;;9.19;85.91
84815;BME280;75050;53.190;5.562;2023-12-20T01:33:55;101364.16;;;9.22;85.58
84815;BME280;75050;53.190;5.562;2023-12-20T01:36:21;101372.81;;;9.22;85.24
84815;BME280;75050;53.190;5.562;2023-12-20T01:38:46;101353.28;;;9.14;85.62
84815;BME280;75050;53.190;5.562;2023-12-20T01:41:12;101370.31;;;9.21;85.60
84815;BME280;75050;53.190;5.562;2023-12-20T01:43:37;101343.28;;;9.05;85.64
84815;BME280;75050;53.190;5.562;2023-12-20T01:46:03;101327.63;;;9.07;85.60
84815;BME280;75050;53.190;5.562;2023-12-20T01:48:29;101352.94;;;9.21;85.74
84815;BME280;75050;53.190;5.562;2023-12-20T01:50:55;101345.41;;;9.16;85.55
84815;BME280;75050;53.190;5.562;2023-12-20T01:53:23;101332.03;;;9.05;85.33
84815;BME280;75050;53.190;5.562;2023-12-20T01:55:52;101323.31;;;9.06;85.81
84815;BME280;75050;53.190;5.562;2023-12-20T01:58:19;101344.50;;;9.17;85.52
84815;BME280;75050;53.190;5.562;2023-12-20T02:00:45;101346.91;;;9.21;85.46
84815;BME280;75050;53.190;5.562;2023-12-20T02:03:11;101303.97;;;8.93;85.26
84815;BME280;75050;53.190;5.562;2023-12-20T02:05:37;101304.75;;;8.95;85.48
84815;BME280;75050;53.190;5.562;2023-12-20T02:08:03;101347.88;;;9.18;85.54
84815;BME280;75050;53.190;5.562;2023-12-20T02:10:28;101345.31;;;9.17;85.70
84815;BME280;75050;53.190;5.562;2023-12-20T02:12:55;101341.00;;;9.18;85.50
84815;BME280;75050;53.190;5.562;2023-12-20T02:15:20;101341.13;;;9.15;85.82
84815;BME280;75050;53.190;5.562;2023-12-20T02:17:47;101311.25;;;9.05;86.05
84815;BME280;75050;53.190;5.562;2023-12-20T02:20:12;101331.50;;;9.17;85.40
84815;BME280;75050;53.190;5.562;2023-12-20T02:22:37;101325.47;;;9.16;85.39
84815;BME280;75050;53.190;5.562;2023-12-20T02:25:03;101297.66;;;8.98;85.59
84815;BME280;75050;53.190;5.562;2023-12-20T02:27:29;101324.63;;;9.16;85.81
84815;BME280;75050;53.190;5.562;2023-12-20T02:29:54;101316.81;;;9.16;85.47
84815;BME280;75050;53.190;5.562;2023-12-20T02:32:20;101317.66;;;9.16;85.43
84815;BME280;75050;53.190;5.562;2023-12-20T02:34:47;101303.47;;;9.05;85.52
84815;BME280;75050;53.190;5.562;2023-12-20T02:37:13;101316.88;;;9.14;85.54
84815;BME280;75050;53.190;5.562;2023-12-20T02:39:39;101319.53;;;9.13;85.39
84815;BME280;75050;53.190;5.562;2023-12-20T02:42:04;101291.56;;;8.99;85.63
84815;BME280;75050;53.190;5.562;2023-12-20T02:44:30;101320.31;;;9.15;85.25
84815;BME280;75050;53.190;5.562;2023-12-20T02:46:55;101318.72;;;9.12;85.28
84815;BME280;75050;53.190;5.562;2023-12-20T02:49:20;101311.81;;;9.11;85.68
84815;BME280;75050;53.190;5.562;2023-12-20T02:51:46;101300.44;;;9.14;85.30
84815;BME280;75050;53.190;5.562;2023-12-20T02:54:12;101279.00;;;8.90;85.21
84815;BME280;75050;53.190;5.562;2023-12-20T02:56:37;101317.72;;;9.15;85.41
84815;BME280;75050;53.190;5.562;2023-12-20T02:59:02;101314.28;;;9.14;85.40
84815;BME280;75050;53.190;5.562;2023-12-20T03:01:31;101294.88;;;9.03;85.37
84815;BME280;75050;53.190;5.562;2023-12-20T03:03:56;101311.75;;;9.13;85.19
84815;BME280;75050;53.190;5.562;2023-12-20T03:06:22;101316.03;;;9.14;85.61
84815;BME280;75050;53.190;5.562;2023-12-20T03:08:47;101303.94;;;9.13;85.60
84815;BME280;75050;53.190;5.562;2023-12-20T03:11:13;101269.44;;;8.91;85.24
84815;BME280;75050;53.190;5.562;2023-12-20T03:13:38;101314.34;;;9.13;85.44
84815;BME280;75050;53.190;5.562;2023-12-20T03:16:10;101294.38;;;9.13;85.54
84815;BME280;75050;53.190;5.562;2023-12-20T03:18:36;101280.91;;;9.05;85.20
84815;BME280;75050;53.190;5.562;2023-12-20T03:21:02;101243.72;;;8.85;85.48
84815;BME280;75050;53.190;5.562;2023-12-20T03:23:27;101291.72;;;9.15;85.22
84815;BME280;75050;53.190;5.562;2023-12-20T03:25:53;101297.91;;;9.12;85.18
84815;BME280;75050;53.190;5.562;2023-12-20T03:28:18;101300.50;;;9.12;85.38
84815;BME280;75050;53.190;5.562;2023-12-20T03:30:44;101296.16;;;9.13;85.46
84815;BME280;75050;53.190;5.562;2023-12-20T03:33:09;101297.00;;;9.13;85.40
84815;BME280;75050;53.190;5.562;2023-12-20T03:35:35;101303.06;;;9.14;85.18
84815;BME280;75050;53.190;5.562;2023-12-20T03:38:00;101284.09;;;9.12;85.56
84815;BME280;75050;53.190;5.562;2023-12-20T03:40:26;101282.03;;;9.00;85.42
84815;BME280;75050;53.190;5.562;2023-12-20T03:42:51;101269.69;;;9.05;85.47
84815;BME280;75050;53.190;5.562;2023-12-20T03:45:16;101284.91;;;9.12;85.59
84815;BME280;75050;53.190;5.562;2023-12-20T03:47:42;101280.56;;;9.13;85.47
84815;BME280;75050;53.190;5.562;2023-12-20T03:50:07;101258.50;;;9.03;85.49
84815;BME280;75050;53.190;5.562;2023-12-20T03:52:33;101266.84;;;9.09;85.78
84815;BME280;75050;53.190;5.562;2023-12-20T03:54:58;101260.69;;;9.12;85.37
84815;BME280;75050;53.190;5.562;2023-12-20T03:57:23;101264.06;;;9.14;85.54
84815;BME280;75050;53.190;5.562;2023-12-20T03:59:49;101260.69;;;9.12;85.88
84815;BME280;75050;53.190;5.562;2023-12-20T04:02:14;101251.97;;;9.13;85.43
84815;BME280;75050;53.190;5.562;2023-12-20T04:04:40;101243.28;;;9.14;85.19
84815;BME280;75050;53.190;5.562;2023-12-20T04:07:05;101250.31;;;9.12;85.50
84815;BME280;75050;53.190;5.562;2023-12-20T04:09:30;101234.69;;;9.12;85.71
84815;BME280;75050;53.190;5.562;2023-12-20T04:11:56;101233.84;;;9.11;85.49
84815;BME280;75050;53.190;5.562;2023-12-20T04:14:21;101223.94;;;9.01;85.77
84815;BME280;75050;53.190;5.562;2023-12-20T04:16:46;101247.59;;;9.13;85.23
84815;BME280;75050;53.190;5.562;2023-12-20T04:19:12;101258.94;;;9.12;85.13
84815;BME280;75050;53.190;5.562;2023-12-20T04:21:37;101241.56;;;9.13;85.36
84815;BME280;75050;53.190;5.562;2023-12-20T04:24:02;101241.63;;;9.11;85.37
84815;BME280;75050;53.190;5.562;2023-12-20T04:26:28;101243.41;;;9.11;85.35
84815;BME280;75050;53.190;5.562;2023-12-20T04:28:54;101234.69;;;9.12;85.62
84815;BME280;75050;53.190;5.562;2023-12-20T04:31:20;101228.94;;;9.05;85.47
84815;BME280;75050;53.190;5.562;2023-12-20T04:33:45;101244.16;;;9.13;85.43
84815;BME280;75050;53.190;5.562;2023-12-20T04:36:10;101171.47;;;8.75;85.22
84815;BME280;75050;53.190;5.562;2023-12-20T04:38:36;101244.09;;;9.14;85.36
84815;BME280;75050;53.190;5.562;2023-12-20T04:41:01;101245.00;;;9.13;85.15
84815;BME280;75050;53.190;5.562;2023-12-20T04:43:27;101242.41;;;9.13;85.18
84815;BME280;75050;53.190;5.562;2023-12-20T04:45:53;101215.38;;;8.99;85.42
84815;BME280;75050;53.190;5.562;2023-12-20T04:48:18;101237.31;;;9.12;85.59
84815;BME280;75050;53.190;5.562;2023-12-20T04:50:44;101231.94;;;9.15;85.31
84815;BME280;75050;53.190;5.562;2023-12-20T04:53:09;101239.75;;;9.15;85.38
84815;BME280;75050;53.190;5.562;2023-12-20T04:55:35;101217.69;;;9.05;85.42
84815;BME280;75050;53.190;5.562;2023-12-20T04:58:00;101223.66;;;9.07;85.42
84815;BME280;75050;53.190;5.562;2023-12-20T05:00:26;101237.16;;;9.15;85.07
84815;BME280;75050;53.190;5.562;2023-12-20T05:02:51;101215.16;;;9.03;85.04
84815;BME280;75050;53.190;5.562;2023-12-20T05:05:17;101209.25;;;9.00;85.42
84815;BME280;75050;53.190;5.562;2023-12-20T05:07:43;101227.69;;;9.14;85.54
84815;BME280;75050;53.190;5.562;2023-12-20T05:10:09;101222.84;;;9.06;85.44
84815;BME280;75050;53.190;5.562;2023-12-20T05:12:35;101199.84;;;8.97;85.32
84815;BME280;75050;53.190;5.562;2023-12-20T05:15:00;101220.91;;;9.10;85.42
84815;BME280;75050;53.190;5.562;2023-12-20T05:17:26;101218.94;;;9.15;85.31
84815;BME280;75050;53.190;5.562;2023-12-20T05:19:52;101218.06;;;9.16;85.16
84815;BME280;75050;53.190;5.562;2023-12-20T05:22:21;101236.25;;;9.16;85.30
84815;BME280;75050;53.190;5.562;2023-12-20T05:24:46;101219.94;;;9.12;85.12
84815;BME280;75050;53.190;5.562;2023-12-20T05:27:12;101218.94;;;9.15;85.58
84815;BME280;75050;53.190;5.562;2023-12-20T05:29:37;101206.88;;;9.14;85.24
84815;BME280;75050;53.190;5.562;2023-12-20T05:32:03;101212.91;;;9.14;85.42
84815;BME280;75050;53.190;5.562;2023-12-20T05:34:30;101219.88;;;9.14;85.37
84815;BME280;75050;53.190;5.562;2023-12-20T05:36:55;101204.53;;;9.08;85.40
84815;BME280;75050;53.190;5.562;2023-12-20T05:39:21;101207.72;;;9.14;85.50
84815;BME280;75050;53.190;5.562;2023-12-20T05:41:46;101208.63;;;9.13;85.27
84815;BME280;75050;53.190;5.562;2023-12-20T05:44:12;101198.44;;;9.09;85.55
84815;BME280;75050;53.190;5.562;2023-12-20T05:46:37;101208.56;;;9.15;85.31
84815;BME280;75050;53.190;5.562;2023-12-20T05:49:03;101205.06;;;9.16;85.31
84815;BME280;75050;53.190;5.562;2023-12-20T05:51:28;101208.56;;;9.15;85.49
84815;BME280;75050;53.190;5.562;2023-12-20T05:53:53;101205.06;;;9.16;85.56
84815;BME280;75050;53.190;5.562;2023-12-20T05:56:19;101199.16;;;9.12;85.27
84815;BME280;75050;53.190;5.562;2023-12-20T05:58:44;101191.28;;;9.14;85.06
84815;BME280;75050;53.190;5.562;2023-12-20T06:01:09;101192.13;;;9.14;85.25
84815;BME280;75050;53.190;5.562;2023-12-20T06:03:35;101192.13;;;9.14;85.71
84815;BME280;75050;53.190;5.562;2023-12-20T06:06:09;101172.59;;;9.06;85.33
84815;BME280;75050;53.190;5.562;2023-12-20T06:08:36;101184.38;;;9.13;85.28
84815;BME280;75050;53.190;5.562;2023-12-20T06:11:01;101194.72;;;9.14;85.21
84815;BME280;75050;53.190;5.562;2023-12-20T06:13:26;101191.28;;;9.14;85.36
84815;BME280;75050;53.190;5.562;2023-12-20T06:15:53;101186.09;;;9.14;85.50
84815;BME280;75050;53.190;5.562;2023-12-20T06:18:19;101186.91;;;9.14;85.24
84815;BME280;75050;53.190;5.562;2023-12-20T06:20:44;101173.00;;;9.15;85.54
84815;BME280;75050;53.190;5.562;2023-12-20T06:23:10;101182.56;;;9.15;85.44
84815;BME280;75050;53.190;5.562;2023-12-20T06:25:35;101179.91;;;9.16;85.25
84815;BME280;75050;53.190;5.562;2023-12-20T06:28:10;101169.09;;;9.07;85.69
84815;BME280;75050;53.190;5.562;2023-12-20T06:30:35;101173.88;;;9.16;85.28
84815;BME280;75050;53.190;5.562;2023-12-20T06:33:01;101174.75;;;9.15;85.56
84815;BME280;75050;53.190;5.562;2023-12-20T06:35:26;101184.25;;;9.16;85.47
84815;BME280;75050;53.190;5.562;2023-12-20T06:37:52;101180.78;;;9.15;85.38
84815;BME280;75050;53.190;5.562;2023-12-20T06:40:17;101161.94;;;9.12;85.60
84815;BME280;75050;53.190;5.562;2023-12-20T06:42:43;101169.63;;;9.13;85.59
84815;BME280;75050;53.190;5.562;2023-12-20T06:45:09;101166.97;;;9.15;85.70
84815;BME280;75050;53.190;5.562;2023-12-20T06:47:35;101166.06;;;9.16;85.61
84815;BME280;75050;53.190;5.562;2023-12-20T06:50:00;101160.22;;;9.11;85.72
84815;BME280;75050;53.190;5.562;2023-12-20T06:52:26;101178.19;;;9.15;85.64
84815;BME280;75050;53.190;5.562;2023-12-20T06:54:51;101166.06;;;9.16;85.54
84815;BME280;75050;53.190;5.562;2023-12-20T06:57:17;101160.94;;;9.14;85.51
84815;BME280;75050;53.190;5.562;2023-12-20T06:59:42;101167.03;;;9.13;85.52
84815;BME280;75050;53.190;5.562;2023-12-20T07:02:11;101152.72;;;9.05;85.33
84815;BME280;75050;53.190;5.562;2023-12-20T07:04:40;101143.16;;;9.05;85.33
84815;BME280;75050;53.190;5.562;2023-12-20T07:07:05;101152.38;;;9.12;85.32
84815;BME280;75050;53.190;5.562;2023-12-20T07:09:30;101155.72;;;9.14;85.27
84815;BME280;75050;53.190;5.562;2023-12-20T07:11:56;101147.53;;;9.05;85.15
84815;BME280;75050;53.190;5.562;2023-12-20T07:14:21;101162.69;;;9.14;85.60
84815;BME280;75050;53.190;5.562;2023-12-20T07:16:47;101160.09;;;9.14;85.49
84815;BME280;75050;53.190;5.562;2023-12-20T07:19:12;101170.56;;;9.12;85.74
84815;BME280;75050;53.190;5.562;2023-12-20T07:21:38;101171.47;;;9.11;85.28
84815;BME280;75050;53.190;5.562;2023-12-20T07:24:03;101167.78;;;9.15;85.60
84815;BME280;75050;53.190;5.562;2023-12-20T07:26:29;101169.56;;;9.15;85.35
84815;BME280;75050;53.190;5.562;2023-12-20T07:28:54;101169.72;;;9.12;85.58
84815;BME280;75050;53.190;5.562;2023-12-20T07:31:19;101179.97;;;9.15;85.49
84815;BME280;75050;53.190;5.562;2023-12-20T07:33:45;101185.16;;;9.15;85.54
84815;BME280;75050;53.190;5.562;2023-12-20T07:36:12;101188.75;;;9.12;85.51
84815;BME280;75050;53.190;5.562;2023-12-20T07:38:37;101192.97;;;9.15;85.47
84815;BME280;75050;53.190;5.562;2023-12-20T07:41:02;101203.34;;;9.15;85.56
84815;BME280;75050;53.190;5.562;2023-12-20T07:43:28;101190.34;;;9.15;85.54
84815;BME280;75050;53.190;5.562;2023-12-20T07:45:53;101182.56;;;9.15;85.65
84815;BME280;75050;53.190;5.562;2023-12-20T07:48:19;101170.50;;;9.14;86.13
84815;BME280;75050;53.190;5.562;2023-12-20T07:50:44;101178.19;;;9.15;86.00
84815;BME280;75050;53.190;5.562;2023-12-20T07:53:09;101175.69;;;9.14;85.67
84815;BME280;75050;53.190;5.562;2023-12-20T07:55:35;101188.59;;;9.15;86.17
84815;BME280;75050;53.190;5.562;2023-12-20T07:58:00;101184.25;;;9.16;85.84
84815;BME280;75050;53.190;5.562;2023-12-20T08:00:26;101185.16;;;9.15;86.13
84815;BME280;75050;53.190;5.562;2023-12-20T08:02:52;101171.47;;;9.11;85.93
84815;BME280;75050;53.190;5.562;2023-12-20T08:05:17;101184.38;;;9.13;85.92
84815;BME280;75050;53.190;5.562;2023-12-20T08:07:43;101162.47;;;9.00;85.62
84815;BME280;75050;53.190;5.562;2023-12-20T08:10:09;101159.75;;;9.03;85.94
84815;BME280;75050;53.190;5.562;2023-12-20T08:12:34;101187.75;;;9.15;85.62
84815;BME280;75050;53.190;5.562;2023-12-20T08:14:59;101189.47;;;9.16;85.84
84815;BME280;75050;53.190;5.562;2023-12-20T08:17:25;101186.84;;;9.16;86.47
84815;BME280;75050;53.190;5.562;2023-12-20T08:19:51;101183.41;;;9.15;85.59
84815;BME280;75050;53.190;5.562;2023-12-20T08:22:16;101192.81;;;9.18;85.96
84815;BME280;75050;53.190;5.562;2023-12-20T08:24:42;101187.63;;;9.18;85.49
84815;BME280;75050;53.190;5.562;2023-12-20T08:27:07;101200.56;;;9.19;85.81
84815;BME280;75050;53.190;5.562;2023-12-20T08:29:34;101190.16;;;9.19;85.60
84815;BME280;75050;53.190;5.562;2023-12-20T08:31:59;101192.81;;;9.18;86.07
84815;BME280;75050;53.190;5.562;2023-12-20T08:34:25;101192.88;;;9.16;85.83
84815;BME280;75050;53.190;5.562;2023-12-20T08:36:51;101199.69;;;9.18;85.73
84815;BME280;75050;53.190;5.562;2023-12-20T08:39:19;101211.09;;;9.16;85.83
84815;BME280;75050;53.190;5.562;2023-12-20T08:41:44;101210.03;;;9.20;85.58
84815;BME280;75050;53.190;5.562;2023-12-20T08:44:10;101220.72;;;9.14;85.71
84815;BME280;75050;53.190;5.562;2023-12-20T08:46:35;101212.75;;;9.17;85.82
84815;BME280;75050;53.190;5.562;2023-12-20T08:49:01;101182.38;;;9.01;85.46
84815;BME280;75050;53.190;5.562;2023-12-20T08:51:27;101153.91;;;8.79;85.20
84815;BME280;75050;53.190;5.562;2023-12-20T08:53:53;101215.44;;;9.16;85.52
84815;BME280;75050;53.190;5.562;2023-12-20T08:56:18;101220.66;;;9.16;85.33
84815;BME280;75050;53.190;5.562;2023-12-20T08:58:45;101251.69;;;9.18;85.47
84815;BME280;75050;53.190;5.562;2023-12-20T09:01:10;101250.38;;;9.10;85.46
84815;BME280;75050;53.190;5.562;2023-12-20T09:03:36;101270.94;;;9.15;85.81
84815;BME280;75050;53.190;5.562;2023-12-20T09:06:01;101275.22;;;9.16;85.43
84815;BME280;75050;53.190;5.562;2023-12-20T09:08:27;101279.72;;;9.12;85.79
84815;BME280;75050;53.190;5.562;2023-12-20T09:10:52;101269.31;;;9.12;85.54
84815;BME280;75050;53.190;5.562;2023-12-20T09:13:17;101260.13;;;9.05;85.69
84815;BME280;75050;53.190;5.562;2023-12-20T09:15:43;101280.69;;;9.10;85.39
84815;BME280;75050;53.190;5.562;2023-12-20T09:18:08;101284.16;;;9.10;85.64
84815;BME280;75050;53.190;5.562;2023-12-20T09:20:34;101281.63;;;9.09;85.63
84815;BME280;75050;53.190;5.562;2023-12-20T09:23:00;101287.53;;;9.12;85.38
84815;BME280;75050;53.190;5.562;2023-12-20T09:25:25;101276.34;;;9.10;85.91
84815;BME280;75050;53.190;5.562;2023-12-20T09:27:51;101287.47;;;9.14;85.65
84815;BME280;75050;53.190;5.562;2023-12-20T09:30:17;101264.75;;;8.99;85.80
84815;BME280;75050;53.190;5.562;2023-12-20T09:32:43;101284.16;;;9.10;85.68
84815;BME280;75050;53.190;5.562;2023-12-20T09:35:08;101281.50;;;9.12;85.52
84815;BME280;75050;53.190;5.562;2023-12-20T09:37:34;101286.69;;;9.12;85.40
84815;BME280;75050;53.190;5.562;2023-12-20T09:39:59;101291.88;;;9.12;85.34
84815;BME280;75050;53.190;5.562;2023-12-20T09:42:39;101236.91;;;8.82;85.44
84815;BME280;75050;53.190;5.562;2023-12-20T09:45:13;101264.75;;;8.99;85.49
84815;BME280;75050;53.190;5.562;2023-12-20T09:47:40;101297.22;;;9.09;85.09
84815;BME280;75050;53.190;5.562;2023-12-20T09:50:06;101287.00;;;9.04;85.21
84815;BME280;75050;53.190;5.562;2023-12-20T09:52:34;101267.03;;;8.86;84.82
84815;BME280;75050;53.190;5.562;2023-12-20T09:55:01;101310.13;;;9.10;84.73
84815;BME280;75050;53.190;5.562;2023-12-20T09:57:31;101317.06;;;9.10;84.96
84815;BME280;75050;53.190;5.562;2023-12-20T09:59:56;101309.44;;;9.07;84.65
84815;BME280;75050;53.190;5.562;2023-12-20T10:02:24;101300.84;;;9.05;84.70
84815;BME280;75050;53.190;5.562;2023-12-20T10:04:52;101297.28;;;9.07;84.85
84815;BME280;75050;53.190;5.562;2023-12-20T10:07:18;101303.81;;;9.16;84.74
84815;BME280;75050;53.190;5.562;2023-12-20T10:09:44;101300.44;;;9.14;84.87
84815;BME280;75050;53.190;5.562;2023-12-20T10:12:09;101286.59;;;9.13;84.81
84815;BME280;75050;53.190;5.562;2023-12-20T10:14:34;101275.59;;;9.08;84.43
84815;BME280;75050;53.190;5.562;2023-12-20T10:17:03;101290.88;;;9.14;84.55
84815;BME280;75050;53.190;5.562;2023-12-20T10:19:29;101289.13;;;9.15;84.47
84815;BME280;75050;53.190;5.562;2023-12-20T10:21:54;101288.28;;;9.14;84.43
84815;BME280;75050;53.190;5.562;2023-12-20T10:24:20;101283.22;;;9.11;84.42
84815;BME280;75050;53.190;5.562;2023-12-20T10:26:45;101282.38;;;9.11;84.24
84815;BME280;75050;53.190;5.562;2023-12-20T10:29:11;101285.19;;;9.06;84.50
84815;BME280;75050;53.190;5.562;2023-12-20T10:31:36;101286.69;;;9.12;84.29
84815;BME280;75050;53.190;5.562;2023-12-20T10:34:04;101291.22;;;9.07;84.36
84815;BME280;75050;53.190;5.562;2023-12-20T10:36:31;101291.94;;;9.10;84.21
84815;BME280;75050;53.190;5.562;2023-12-20T10:38:57;101289.34;;;9.10;83.97
84815;BME280;75050;53.190;5.562;2023-12-20T10:41:27;101285.81;;;9.11;84.47
84815;BME280;75050;53.190;5.562;2023-12-20T10:44:01;101240.00;;;8.90;84.50
84815;BME280;75050;53.190;5.562;2023-12-20T10:46:29;101252.38;;;9.04;84.47
84815;BME280;75050;53.190;5.562;2023-12-20T10:48:56;101260.53;;;9.15;84.06
84815;BME280;75050;53.190;5.562;2023-12-20T10:51:23;101265.66;;;9.16;84.18
84815;BME280;75050;53.190;5.562;2023-12-20T10:53:50;101262.16;;;9.17;83.97
84815;BME280;75050;53.190;5.562;2023-12-20T10:56:17;101241.78;;;9.08;83.72
84815;BME280;75050;53.190;5.562;2023-12-20T10:58:47;101256.88;;;9.18;83.48
84815;BME280;75050;53.190;5.562;2023-12-20T11:01:14;101257.81;;;9.18;83.91
84815;BME280;75050;53.190;5.562;2023-12-20T11:03:52;101256.03;;;9.18;83.83
84815;BME280;75050;53.190;5.562;2023-12-20T11:09:13;101212.63;;;9.02;83.14
84815;BME280;75050;53.190;5.562;2023-12-20T11:14:28;101225.63;;;9.02;83.63
84815;BME280;75050;53.190;5.562;2023-12-20T11:17:09;101254.09;;;9.23;83.44
84815;BME280;75050;53.190;5.562;2023-12-20T11:20:05;101220.22;;;9.06;83.62
84815;BME280;75050;53.190;5.562;2023-12-20T11:22:32;101249.84;;;9.20;83.89
84815;BME280;75050;53.190;5.562;2023-12-20T11:25:20;101255.91;;;9.21;83.53
84815;BME280;75050;53.190;5.562;2023-12-20T11:28:09;101247.19;;;9.22;83.63
84815;BME280;75050;53.190;5.562;2023-12-20T11:30:50;101242.00;;;9.22;83.55
84815;BME280;75050;53.190;5.562;2023-12-20T11:33:16;101244.66;;;9.20;83.24
84815;BME280;75050;53.190;5.562;2023-12-20T11:35:42;101239.44;;;9.20;84.05
84815;BME280;75050;53.190;5.562;2023-12-20T11:38:09;101234.25;;;9.20;84.03
84815;BME280;75050;53.190;5.562;2023-12-20T11:40:35;101215.22;;;9.20;84.35
84815;BME280;75050;53.190;5.562;2023-12-20T11:43:02;101201.31;;;9.21;84.24
84815;BME280;75050;53.190;5.562;2023-12-20T11:45:27;101193.78;;;9.15;83.82
84815;BME280;75050;53.190;5.562;2023-12-20T11:47:53;101209.97;;;9.21;84.26
84815;BME280;75050;53.190;5.562;2023-12-20T11:50:22;101216.94;;;9.21;84.29
84815;BME280;75050;53.190;5.562;2023-12-20T11:52:48;101214.53;;;9.17;84.20
84815;BME280;75050;53.190;5.562;2023-12-20T11:55:14;101230.88;;;9.18;84.23
84815;BME280;75050;53.190;5.562;2023-12-20T11:57:40;101217.34;;;9.12;84.21
84815;BME280;75050;53.190;5.562;2023-12-20T12:00:06;101226.69;;;9.16;84.61
84815;BME280;75050;53.190;5.562;2023-12-20T12:02:32;101212.91;;;9.14;83.90
84815;BME280;75050;53.190;5.562;2023-12-20T12:04:57;101206.31;;;9.07;83.91
84815;BME280;75050;53.190;5.562;2023-12-20T12:07:24;101214.03;;;9.09;84.05
84815;BME280;75050;53.190;5.562;2023-12-20T12:09:50;101219.09;;;9.12;84.36
84815;BME280;75050;53.190;5.562;2023-12-20T12:12:16;101207.31;;;9.05;84.39
84815;BME280;75050;53.190;5.562;2023-12-20T12:14:44;101182.38;;;9.01;84.41
84815;BME280;75050;53.190;5.562;2023-12-20T12:17:13;101202.88;;;9.07;84.29
84815;BME280;75050;53.190;5.562;2023-12-20T12:19:43;101205.94;;;9.15;84.70
84815;BME280;75050;53.190;5.562;2023-12-20T12:22:13;101203.50;;;9.12;84.72
84815;BME280;75050;53.190;5.562;2023-12-20T12:24:48;101190.16;;;9.01;84.61
84815;BME280;75050;53.190;5.562;2023-12-20T12:27:14;101195.06;;;9.07;84.65
84815;BME280;75050;53.190;5.562;2023-12-20T12:29:42;101182.22;;;9.04;84.85
84815;BME280;75050;53.190;5.562;2023-12-20T12:32:24;101212.16;;;9.12;84.77
84815;BME280;75050;53.190;5.562;2023-12-20T12:34:50;101200.97;;;9.10;84.70
84815;BME280;75050;53.190;5.562;2023-12-20T12:37:15;101204.41;;;9.11;84.87
84815;BME280;75050;53.190;5.562;2023-12-20T12:39:41;101202.72;;;9.10;85.17
84815;BME280;75050;53.190;5.562;2023-12-20T12:42:06;101208.06;;;9.07;85.06
84815;BME280;75050;53.190;5.562;2023-12-20T12:44:31;101210.50;;;9.10;84.95
84815;BME280;75050;53.190;5.562;2023-12-20T12:46:57;101203.63;;;9.09;85.14
84815;BME280;75050;53.190;5.562;2023-12-20T12:49:22;101203.56;;;9.10;85.43
84815;BME280;75050;53.190;5.562;2023-12-20T12:51:48;101196.69;;;9.09;85.36
84815;BME280;75050;53.190;5.562;2023-12-20T12:54:13;101192.31;;;9.10;85.50
84815;BME280;75050;53.190;5.562;2023-12-20T12:56:42;101188.94;;;9.08;85.49
84815;BME280;75050;53.190;5.562;2023-12-20T12:59:08;101178.06;;;9.00;85.26
84815;BME280;75050;53.190;5.562;2023-12-20T13:01:33;101186.28;;;9.09;85.08